Boryslav — ENLB — position and weather

sailwx.info

Track history (hours):
 
Tides and Currents Weather Stations Pressure Air Temp Water Temp Dewpoint Dewpoint Depression Visibility Wind Speed Wind Dir Waves Ship Positions

Boryslav

Last reported at 2016-Jul-30 16:33 UTC. Time now 2016-Jul-30 16:52 UTC.
Position N 47°52' E 035°06'.

Length 86 m; draft 2.3 m.

Type: Cargo ship. MMSI: 272088700.

Date/timePositionNaut miles runAvg speedWind from/ knotsBaromVisibWave heightAir tempDewpointWater temp
2016-Jul-30 16:33N 47°52' E 035°06'1 0.5
2016-Jul-30 15:33N 47°53' E 035°07'0 0.3
2016-Jul-30 14:33N 47°53' E 035°07'0 0.0
2016-Jul-30 13:33N 47°53' E 035°07'0 0.0
2016-Jul-30 12:33N 47°53' E 035°07'0 0.0
2016-Jul-30 11:33N 47°53' E 035°07'0 0.0
2016-Jul-30 10:33N 47°53' E 035°07'0 0.0
2016-Jul-30 09:33N 47°53' E 035°07'0 0.0
2016-Jul-30 08:33N 47°53' E 035°07'0 0.0
2016-Jul-30 07:33N 47°53' E 035°07'0 0.0
2016-Jul-30 06:33N 47°53' E 035°07'0 0.0
2016-Jul-30 05:33N 47°53' E 035°07'0 0.0
2016-Jul-30 04:33N 47°53' E 035°07'0 0.0
2016-Jul-30 03:33N 47°53' E 035°07'0 0.0
2016-Jul-30 02:33N 47°53' E 035°07'0 0.0
2016-Jul-30 01:33N 47°53' E 035°07'0 0.0
2016-Jul-30 00:33N 47°53' E 035°07'0 0.0
2016-Jul-29 23:33N 47°53' E 035°07'0 0.0
2016-Jul-29 22:33N 47°53' E 035°07'0 0.0
2016-Jul-29 21:33N 47°53' E 035°07'0 0.0
2016-Jul-29 20:33N 47°53' E 035°07'0 0.0
2016-Jul-29 19:33N 47°53' E 035°07'0 0.0
2016-Jul-29 18:33N 47°53' E 035°07'0 0.0
2016-Jul-29 17:33N 47°53' E 035°07'0 0.0
2016-Jul-29 16:33N 47°53' E 035°07'0 0.0
2016-Jul-29 15:34N 47°53' E 035°07'0 0.0
2016-Jul-29 14:33N 47°53' E 035°07'0 0.0
2016-Jul-29 13:33N 47°53' E 035°07'0 0.0
2016-Jul-29 12:34N 47°53' E 035°07'0 0.0
2016-Jul-29 11:34N 47°53' E 035°06'1 0.9
2016-Jul-29 10:33N 47°52' E 035°06'1 0.7
2016-Jul-29 09:34N 47°51' E 035°05'4 4.1
2016-Jul-29 08:33N 47°48' E 035°09'0 0.1
2016-Jul-29 07:34N 47°48' E 035°09'3 3.1
2016-Jul-29 06:33N 47°45' E 035°10'3 3.2
2016-Jul-29 05:33N 47°42' E 035°08'3 3.3
2016-Jul-29 04:34N 47°39' E 035°07'4 3.6
2016-Jul-29 03:33N 47°37' E 035°03'1 0.7
2016-Jul-29 02:34N 47°36' E 035°02'1 1.0
2016-Jul-29 01:33N 47°35' E 035°03'0 0.0
2016-Jul-29 00:33N 47°35' E 035°03'0 0.0
2016-Jul-28 23:32N 47°35' E 035°03'0 0.0
2016-Jul-28 22:33N 47°35' E 035°03'0 0.0
2016-Jul-28 21:34N 47°35' E 035°03'0 0.0
2016-Jul-28 20:33N 47°35' E 035°03'0 0.0
2016-Jul-28 19:34N 47°35' E 035°03'0 0.4
2016-Jul-28 18:33N 47°35' E 035°03'0 0.0
2016-Jul-28 13:33N 47°35' E 035°03'0 0.0
2016-Jul-28 12:33N 47°35' E 035°03'140 2.8
2016-Jul-26 11:24N 46°33' E 031°59'6 6.6
2016-Jul-26 10:33N 46°35' E 031°52'40 6.2
2016-Jul-26 04:13N 46°32' E 030°54'4 6.4
2016-Jul-26 03:34N 46°31' E 030°49'3 2.8
2016-Jul-26 02:34N 46°29' E 030°45'0 0.0
2016-Jul-26 01:33N 46°29' E 030°45'0 0.0
2016-Jul-26 00:33N 46°29' E 030°45'0 0.0
2016-Jul-25 23:33N 46°29' E 030°45'0 0.0
2016-Jul-25 22:33N 46°29' E 030°45'0 0.0
2016-Jul-25 21:33N 46°29' E 030°45'0 0.0
2016-Jul-25 20:32N 46°29' E 030°45'0 0.0
2016-Jul-25 19:34N 46°29' E 030°45'0 0.0
2016-Jul-25 18:34N 46°29' E 030°45'0 0.0
2016-Jul-25 17:33N 46°29' E 030°45'0 0.0
2016-Jul-25 16:34N 46°29' E 030°45'1 0.8
2016-Jul-25 15:34N 46°30' E 030°46'2 1.5
2016-Jul-25 14:33N 46°31' E 030°46'0 0.0
2016-Jul-25 13:33N 46°31' E 030°46'0 0.0
2016-Jul-25 12:33N 46°31' E 030°46'0 0.0
2016-Jul-25 11:27N 46°31' E 030°46'0 0.0
2016-Jul-25 10:15N 46°31' E 030°46'0 0.0
2016-Jul-25 08:17N 46°31' E 030°46'0 0.0
2016-Jul-25 07:32N 46°31' E 030°46'0 0.0
2016-Jul-25 06:24N 46°31' E 030°46'3 3.3
2016-Jul-25 05:29N 46°31' E 030°50'43 3.3
2016-Jul-24 16:33N 46°35' E 031°53'  
2016-Jul-22 11:32N 47°36' E 035°03'5 5.4
2016-Jul-22 10:33N 47°40' E 035°07'5 5.3
2016-Jul-22 09:33N 47°45' E 035°10'3 3.3
2016-Jul-22 08:33N 47°49' E 035°09'0 0.1
2016-Jul-22 07:33N 47°48' E 035°09'0 0.0
2016-Jul-22 05:33N 47°48' E 035°09'4 4.3
2016-Jul-22 04:33N 47°52' E 035°06'1 1.0
2016-Jul-22 03:33N 47°53' E 035°06'0 0.1
2016-Jul-22 02:33N 47°53' E 035°06'0 0.0
2016-Jul-22 01:33N 47°53' E 035°06'0 0.0
2016-Jul-22 00:33N 47°53' E 035°06'0 0.0
2016-Jul-21 23:33N 47°53' E 035°06'0 0.0
2016-Jul-21 22:33N 47°53' E 035°06'0 0.1
2016-Jul-21 21:33N 47°53' E 035°06'0 0.0
2016-Jul-21 20:33N 47°53' E 035°06'0 0.1
2016-Jul-21 19:33N 47°53' E 035°06'0 0.0
2016-Jul-21 18:33N 47°53' E 035°06'1 1.2
2016-Jul-21 17:33N 47°54' E 035°06'6 5.6
2016-Jul-21 16:33N 47°59' E 035°08'  
Track history (hours):
 
Tides and Currents Weather Stations Pressure Air Temp Water Temp Dewpoint Dewpoint Depression Visibility Wind Speed Wind Dir Waves Ship Positions

Boryslav

Last reported at 2016-Jul-30 16:33 UTC. Time now 2016-Jul-30 16:52 UTC.
Position N 47°52' E 035°06'.

Length 86 m; draft 2.3 m.

Type: Cargo ship. MMSI: 272088700.

Date/timePositionNaut miles runAvg speedWind from/ knotsBaromVisibWave heightAir tempDewpointWater temp
2016-Jul-30 16:33N 47°52' E 035°06'1 0.5
2016-Jul-30 15:33N 47°53' E 035°07'0 0.3
2016-Jul-30 14:33N 47°53' E 035°07'0 0.0
2016-Jul-30 13:33N 47°53' E 035°07'0 0.0
2016-Jul-30 12:33N 47°53' E 035°07'0 0.0
2016-Jul-30 11:33N 47°53' E 035°07'0 0.0
2016-Jul-30 10:33N 47°53' E 035°07'0 0.0
2016-Jul-30 09:33N 47°53' E 035°07'0 0.0
2016-Jul-30 08:33N 47°53' E 035°07'0 0.0
2016-Jul-30 07:33N 47°53' E 035°07'0 0.0
2016-Jul-30 06:33N 47°53' E 035°07'0 0.0
2016-Jul-30 05:33N 47°53' E 035°07'0 0.0
2016-Jul-30 04:33N 47°53' E 035°07'0 0.0
2016-Jul-30 03:33N 47°53' E 035°07'0 0.0
2016-Jul-30 02:33N 47°53' E 035°07'0 0.0
2016-Jul-30 01:33N 47°53' E 035°07'0 0.0
2016-Jul-30 00:33N 47°53' E 035°07'0 0.0
2016-Jul-29 23:33N 47°53' E 035°07'0 0.0
2016-Jul-29 22:33N 47°53' E 035°07'0 0.0
2016-Jul-29 21:33N 47°53' E 035°07'0 0.0
2016-Jul-29 20:33N 47°53' E 035°07'0 0.0
2016-Jul-29 19:33N 47°53' E 035°07'0 0.0
2016-Jul-29 18:33N 47°53' E 035°07'0 0.0
2016-Jul-29 17:33N 47°53' E 035°07'0 0.0
2016-Jul-29 16:33N 47°53' E 035°07'0 0.0
2016-Jul-29 15:34N 47°53' E 035°07'0 0.0
2016-Jul-29 14:33N 47°53' E 035°07'0 0.0
2016-Jul-29 13:33N 47°53' E 035°07'0 0.0
2016-Jul-29 12:34N 47°53' E 035°07'0 0.0
2016-Jul-29 11:34N 47°53' E 035°06'1 0.9
2016-Jul-29 10:33N 47°52' E 035°06'1 0.7
2016-Jul-29 09:34N 47°51' E 035°05'4 4.1
2016-Jul-29 08:33N 47°48' E 035°09'0 0.1
2016-Jul-29 07:34N 47°48' E 035°09'3 3.1
2016-Jul-29 06:33N 47°45' E 035°10'3 3.2
2016-Jul-29 05:33N 47°42' E 035°08'3 3.3
2016-Jul-29 04:34N 47°39' E 035°07'4 3.6
2016-Jul-29 03:33N 47°37' E 035°03'1 0.7
2016-Jul-29 02:34N 47°36' E 035°02'1 1.0
2016-Jul-29 01:33N 47°35' E 035°03'0 0.0
2016-Jul-29 00:33N 47°35' E 035°03'0 0.0
2016-Jul-28 23:32N 47°35' E 035°03'0 0.0
2016-Jul-28 22:33N 47°35' E 035°03'0 0.0
2016-Jul-28 21:34N 47°35' E 035°03'0 0.0
2016-Jul-28 20:33N 47°35' E 035°03'0 0.0
2016-Jul-28 19:34N 47°35' E 035°03'0 0.4
2016-Jul-28 18:33N 47°35' E 035°03'0 0.0
2016-Jul-28 13:33N 47°35' E 035°03'0 0.0
2016-Jul-28 12:33N 47°35' E 035°03'140 2.8
2016-Jul-26 11:24N 46°33' E 031°59'6 6.6
2016-Jul-26 10:33N 46°35' E 031°52'40 6.2
2016-Jul-26 04:13N 46°32' E 030°54'4 6.4
2016-Jul-26 03:34N 46°31' E 030°49'3 2.8
2016-Jul-26 02:34N 46°29' E 030°45'0 0.0
2016-Jul-26 01:33N 46°29' E 030°45'0 0.0
2016-Jul-26 00:33N 46°29' E 030°45'0 0.0
2016-Jul-25 23:33N 46°29' E 030°45'0 0.0
2016-Jul-25 22:33N 46°29' E 030°45'0 0.0
2016-Jul-25 21:33N 46°29' E 030°45'0 0.0
2016-Jul-25 20:32N 46°29' E 030°45'0 0.0
2016-Jul-25 19:34N 46°29' E 030°45'0 0.0
2016-Jul-25 18:34N 46°29' E 030°45'0 0.0
2016-Jul-25 17:33N 46°29' E 030°45'0 0.0
2016-Jul-25 16:34N 46°29' E 030°45'1 0.8
2016-Jul-25 15:34N 46°30' E 030°46'2 1.5
2016-Jul-25 14:33N 46°31' E 030°46'0 0.0
2016-Jul-25 13:33N 46°31' E 030°46'0 0.0
2016-Jul-25 12:33N 46°31' E 030°46'0 0.0
2016-Jul-25 11:27N 46°31' E 030°46'0 0.0
2016-Jul-25 10:15N 46°31' E 030°46'0 0.0
2016-Jul-25 08:17N 46°31' E 030°46'0 0.0
2016-Jul-25 07:32N 46°31' E 030°46'0 0.0
2016-Jul-25 06:24N 46°31' E 030°46'3 3.3
2016-Jul-25 05:29N 46°31' E 030°50'43 3.3
2016-Jul-24 16:33N 46°35' E 031°53'  
2016-Jul-22 11:32N 47°36' E 035°03'5 5.4
2016-Jul-22 10:33N 47°40' E 035°07'5 5.3
2016-Jul-22 09:33N 47°45' E 035°10'3 3.3
2016-Jul-22 08:33N 47°49' E 035°09'0 0.1
2016-Jul-22 07:33N 47°48' E 035°09'0 0.0
2016-Jul-22 05:33N 47°48' E 035°09'4 4.3
2016-Jul-22 04:33N 47°52' E 035°06'1 1.0
2016-Jul-22 03:33N 47°53' E 035°06'0 0.1
2016-Jul-22 02:33N 47°53' E 035°06'0 0.0
2016-Jul-22 01:33N 47°53' E 035°06'0 0.0
2016-Jul-22 00:33N 47°53' E 035°06'0 0.0
2016-Jul-21 23:33N 47°53' E 035°06'0 0.0
2016-Jul-21 22:33N 47°53' E 035°06'0 0.1
2016-Jul-21 21:33N 47°53' E 035°06'0 0.0
2016-Jul-21 20:33N 47°53' E 035°06'0 0.1
2016-Jul-21 19:33N 47°53' E 035°06'0 0.0
2016-Jul-21 18:33N 47°53' E 035°06'1 1.2
2016-Jul-21 17:33N 47°54' E 035°06'6 5.6
2016-Jul-21 16:33N 47°59' E 035°08'  

Dump ship's entire track history